Time;durP1;ratioP1;P1;durP2;ratioP2;P2;SDS_P1;SDS_P2;PMS_P1;PMS_P2;Temp;Humidity;BMP_temperature;BMP_pressure;BME280_temperature;BME280_humidity;BME280_pressure;Samples;Min_cycle;Max_cycle;Signal;HPM_P1;HPM_P2
2022/07/21 00:00:24;;;;;;;6.33;5.00;;;25.70;59.70;;;28.26;44.92;101494.75;5099912;28;20200;-60
2022/07/21 00:02:53;;;;;;;8.37;4.60;;;25.60;59.60;;;28.24;44.99;101505.88;5099773;28;20208;-58
2022/07/21 00:05:22;;;;;;;7.83;3.70;;;25.60;59.50;;;28.23;45.35;101506.94;5101237;28;20261;-58
2022/07/21 00:07:51;;;;;;;5.57;4.53;;;25.60;59.80;;;28.20;45.09;101518.31;5100657;28;20223;-57
2022/07/21 00:10:22;;;;;;;5.20;4.47;;;25.60;59.80;;;28.17;44.85;101519.66;5100003;28;20190;-58
2022/07/21 00:12:50;;;;;;;8.43;4.37;;;25.60;60.00;;;28.17;45.53;101521.56;5100082;28;20200;-58
2022/07/21 00:15:21;;;;;;;5.03;4.47;;;25.60;60.30;;;28.18;45.28;101536.72;5099908;28;20180;-55
2022/07/21 00:17:48;;;;;;;6.53;4.03;;;25.60;60.30;;;28.19;45.24;101551.91;5099797;28;20537;-58
2022/07/21 00:20:17;;;;;;;5.63;4.30;;;25.60;60.30;;;28.18;45.21;101563.81;5099677;28;20189;-57
2022/07/21 00:22:45;;;;;;;7.57;4.27;;;25.50;60.40;;;28.16;45.48;101593.88;5100553;28;20212;-58
2022/07/21 00:25:15;;;;;;;11.03;5.13;;;25.50;60.50;;;28.13;45.66;101616.09;5099330;28;20556;-57
2022/07/21 00:27:44;;;;;;;9.27;5.40;;;25.50;61.00;;;28.10;45.84;101616.63;5099474;28;20200;-58
2022/07/21 00:30:13;;;;;;;8.27;6.57;;;25.50;61.00;;;28.08;45.95;101634.22;5099706;28;20195;-58
2022/07/21 00:32:43;;;;;;;11.87;6.37;;;25.50;61.60;;;28.03;46.20;101645.84;5099452;28;20652;-58
2022/07/21 00:35:12;;;;;;;13.60;7.20;;;25.40;61.90;;;27.94;46.56;101682.63;5099809;28;20189;-57
2022/07/21 00:37:40;;;;;;;11.30;7.13;;;25.40;62.30;;;27.74;47.99;101720.44;5100728;28;20202;-58
2022/07/21 00:40:10;;;;;;;13.53;7.80;;;25.30;63.90;;;27.45;49.01;101732.75;5099385;28;20200;-57
2022/07/21 00:42:38;;;;;;;9.47;6.93;;;25.20;64.60;;;27.27;49.64;101725.03;5099013;28;20677;-57
2022/07/21 00:45:09;;;;;;;7.87;5.93;;;25.10;64.30;;;27.24;48.77;101698.53;5099430;28;20827;-56
2022/07/21 00:47:37;;;;;;;9.30;6.67;;;24.90;64.10;;;27.26;48.84;101701.78;5099491;28;20682;-56
2022/07/21 00:50:11;;;;;;;8.87;6.17;;;24.90;64.00;;;27.28;48.57;101705.03;5099607;28;20189;-57
2022/07/21 00:52:38;;;;;;;9.23;6.00;;;24.90;64.20;;;27.30;48.71;101697.47;5099081;28;20568;-58
2022/07/21 00:55:10;;;;;;;9.10;6.80;;;24.80;64.20;;;27.32;48.25;101677.19;5098959;28;20197;-57
2022/07/21 00:57:38;;;;;;;9.80;6.67;;;24.80;64.20;;;27.35;48.05;101656.94;5096257;28;20572;-56
2022/07/21 01:00:13;;;;;;;6.60;5.70;;;24.80;64.10;;;27.37;47.95;101650.22;5096283;28;20192;-57
2022/07/21 01:02:40;;;;;;;6.77;6.07;;;24.80;64.10;;;27.45;47.83;101624.56;5095730;28;20219;-58
2022/07/21 01:05:14;;;;;;;10.23;6.20;;;24.80;64.10;;;27.53;47.47;101605.09;5095967;28;20222;-58
2022/07/21 01:07:46;;;;;;;8.07;6.37;;;24.90;64.20;;;27.62;47.52;101584.56;5095964;28;20559;-57
2022/07/21 01:10:16;;;;;;;7.47;6.13;;;24.90;64.10;;;27.69;47.06;101555.34;5095982;28;20192;-58
2022/07/21 01:12:45;;;;;;;7.67;5.70;;;25.00;63.80;;;27.77;47.00;101557.53;5095589;28;20216;-58
2022/07/21 01:15:17;;;;;;;9.60;6.23;;;25.00;63.40;;;27.82;47.09;101554.00;5095656;28;20188;-58
2022/07/21 01:17:46;;;;;;;6.67;5.83;;;25.10;63.30;;;27.87;46.86;101560.25;5096087;28;20299;-57
2022/07/21 01:20:18;;;;;;;7.27;5.87;;;25.10;63.00;;;27.91;46.65;101555.91;5095760;28;20199;-58
2022/07/21 01:22:50;;;;;;;8.50;6.20;;;25.20;62.80;;;27.94;46.34;101552.66;5095521;28;20273;-59
2022/07/21 01:25:20;;;;;;;6.87;6.10;;;25.20;62.70;;;27.98;46.58;101561.09;5095689;28;20553;-58
2022/07/21 01:27:47;;;;;;;8.90;5.40;;;25.20;62.40;;;28.01;46.42;101558.66;5096864;28;20211;-58
2022/07/21 01:30:16;;;;;;;10.00;6.40;;;25.30;62.00;;;28.04;46.50;101558.13;5095569;28;20192;-57
2022/07/21 01:32:45;;;;;;;7.00;5.23;;;25.30;62.10;;;28.05;45.93;101564.38;5095056;28;20283;-59
2022/07/21 01:35:15;;;;;;;8.80;6.13;;;25.30;61.80;;;28.06;45.82;101539.72;5095572;28;20192;-60
2022/07/21 01:37:46;;;;;;;6.83;6.13;;;25.40;61.70;;;28.09;45.98;101539.19;5095370;28;20189;-58
2022/07/21 01:43:04;;;;;;;8.70;6.17;;;25.40;61.40;;;28.06;45.70;101542.41;5095241;28;20277;-58
2022/07/21 01:45:40;;;;;;;9.40;5.87;;;25.40;61.20;;;28.07;45.96;101549.47;5115120;28;20219;-59
2022/07/21 01:48:08;;;;;;;6.80;5.47;;;25.40;61.20;;;28.06;45.85;101566.78;5115704;28;20188;-60
2022/07/21 01:50:37;;;;;;;8.10;5.50;;;25.40;61.10;;;28.05;45.81;101575.19;5115325;28;20215;-58
2022/07/21 01:53:07;;;;;;;8.27;5.63;;;25.40;61.00;;;28.03;45.72;101561.91;5115522;28;20660;-59
2022/07/21 01:55:35;;;;;;;7.30;5.70;;;25.40;61.10;;;28.00;45.30;101570.56;5115596;28;20248;-60
2022/07/21 01:58:02;;;;;;;6.20;5.50;;;25.40;61.10;;;27.97;45.54;101579.22;5114284;28;20661;-60
2022/07/21 02:00:30;;;;;;;6.33;5.60;;;25.40;61.20;;;27.95;45.48;101581.38;5113077;28;20276;-60
2022/07/21 02:02:57;;;;;;;7.73;5.73;;;25.30;61.20;;;27.93;45.55;101580.81;5115321;28;20207;-59
2022/07/21 02:05:24;;;;;;;6.10;4.87;;;25.30;60.80;;;27.92;45.50;101579.22;5115343;28;20199;-60
2022/07/21 02:07:52;;;;;;;9.93;5.33;;;25.30;61.40;;;27.90;45.33;101584.09;5115402;28;20188;-59
2022/07/21 02:10:21;;;;;;;5.60;4.27;;;25.20;60.50;;;27.88;45.16;101580.84;5115280;28;20192;-59
2022/07/21 02:12:48;;;;;;;7.33;4.37;;;25.20;60.30;;;27.85;44.87;101584.06;5115220;28;20242;-59
2022/07/21 02:15:16;;;;;;;4.70;3.70;;;25.20;60.10;;;27.84;45.11;101597.84;5115249;28;20198;-59
2022/07/21 02:17:43;;;;;;;5.30;3.80;;;25.20;60.00;;;27.78;44.95;101596.22;5102496;28;20196;-60
2022/07/21 02:20:11;;;;;;;3.90;3.37;;;25.10;59.90;;;27.72;44.87;101598.09;5094786;28;20195;-60
2022/07/21 02:22:39;;;;;;;3.77;3.03;;;25.10;59.70;;;27.65;44.69;101588.63;5093981;28;20222;-58
2022/07/21 02:25:07;;;;;;;5.43;3.13;;;25.00;59.80;;;27.55;44.91;101592.13;5094353;28;20204;-60
2022/07/21 02:27:36;;;;;;;4.47;3.00;;;25.00;59.70;;;27.50;44.85;101592.09;5094172;28;20185;-58
2022/07/21 02:30:05;;;;;;;3.77;3.20;;;24.90;59.90;;;27.46;45.01;101591.00;5094329;28;20192;-60
2022/07/21 02:32:33;;;;;;;5.27;3.20;;;24.90;59.90;;;27.43;45.17;101572.59;5094754;28;20208;-59
2022/07/21 02:35:01;;;;;;;5.07;3.23;;;24.80;60.00;;;27.40;45.28;101573.13;5094259;28;20193;-60
2022/07/21 02:37:28;;;;;;;4.43;3.47;;;24.70;60.30;;;27.39;45.21;101571.50;5094456;28;20192;-59
2022/07/21 02:39:56;;;;;;;6.27;3.60;;;24.70;60.70;;;27.37;45.88;101579.03;5094498;28;20219;-60
2022/07/21 02:42:23;;;;;;;5.17;3.33;;;24.70;61.20;;;27.37;45.81;101579.88;5093905;28;20204;-59
2022/07/21 02:44:52;;;;;;;3.60;3.00;;;24.70;61.30;;;27.41;46.16;101585.56;5094463;28;20200;-59
2022/07/21 02:47:21;;;;;;;3.67;3.37;;;24.70;61.50;;;27.40;46.00;101570.44;5094226;28;20317;-59
2022/07/21 02:49:48;;;;;;;3.60;3.27;;;24.70;61.40;;;27.43;45.62;101564.50;5095267;28;20558;-60
2022/07/21 02:52:18;;;;;;;3.80;3.20;;;24.70;61.60;;;27.44;45.82;101564.22;5093425;28;20239;-60
2022/07/21 02:54:48;;;;;;;3.53;3.23;;;24.70;61.50;;;27.41;45.69;101569.31;5094109;28;20195;-58
2022/07/21 02:57:15;;;;;;;6.23;3.20;;;24.70;61.20;;;27.38;45.88;101580.69;5094059;28;20180;-60
2022/07/21 02:59:42;;;;;;;4.53;3.40;;;24.70;61.40;;;27.37;46.19;101581.75;5093921;28;20185;-59
2022/07/21 03:02:11;;;;;;;4.90;4.03;;;24.70;61.70;;;27.39;46.22;101585.00;5093516;28;20536;-57
2022/07/21 03:04:39;;;;;;;5.13;3.80;;;24.70;62.10;;;27.41;46.42;101591.78;5093867;28;20220;-59
2022/07/21 03:07:06;;;;;;;5.03;3.60;;;24.70;62.50;;;27.41;47.01;101561.22;5094696;28;20196;-59
2022/07/21 03:09:34;;;;;;;5.00;3.80;;;24.70;63.40;;;27.39;47.01;101549.84;5093720;28;20270;-59
2022/07/21 03:12:01;;;;;;;6.10;4.10;;;24.60;63.20;;;27.35;47.17;101559.56;5092929;28;20219;-58
2022/07/21 03:14:28;;;;;;;5.47;3.53;;;24.60;63.70;;;27.27;47.43;101569.00;5091619;28;20180;-59
2022/07/21 03:16:57;;;;;;;5.97;3.67;;;24.60;63.80;;;27.22;47.73;101566.25;5093683;28;20661;-59
2022/07/21 03:19:26;;;;;;;4.80;4.07;;;24.50;63.90;;;27.12;47.72;101538.38;5093039;28;20192;-58
2022/07/21 03:21:53;;;;;;;4.00;3.60;;;24.50;63.90;;;27.05;47.41;101506.19;5092978;28;20243;-57
2022/07/21 03:24:21;;;;;;;6.47;3.57;;;24.40;64.70;;;27.01;48.56;101509.66;5094682;28;20274;-58
2022/07/21 03:26:49;;;;;;;6.43;3.60;;;24.40;65.60;;;26.99;48.58;101522.63;5093726;28;20553;-58
2022/07/21 03:29:17;;;;;;;5.03;3.93;;;24.30;65.90;;;26.96;48.98;101534.78;5093754;28;20568;-58
2022/07/21 03:31:44;;;;;;;7.70;4.43;;;24.30;66.40;;;26.91;48.95;101532.06;5093586;28;20209;-58
2022/07/21 03:34:11;;;;;;;4.83;4.43;;;24.30;66.60;;;26.86;49.55;101524.75;5093640;28;20184;-57
2022/07/21 03:36:41;;;;;;;6.53;4.17;;;24.20;66.80;;;26.83;49.92;101530.69;5093531;28;20284;-58
2022/07/21 03:39:08;;;;;;;5.00;4.50;;;24.20;67.40;;;26.81;49.59;101532.81;5094688;28;20557;-59
2022/07/21 03:41:35;;;;;;;6.53;4.50;;;24.10;67.60;;;26.80;49.67;101538.50;5092976;28;20549;-59
2022/07/21 03:44:03;;;;;;;5.90;4.87;;;24.10;68.10;;;26.79;50.17;101540.38;5093460;28;20212;-57
2022/07/21 03:46:31;;;;;;;8.20;4.93;;;24.10;68.30;;;26.79;50.16;101540.38;5093340;28;20188;-58
2022/07/21 03:48:58;;;;;;;6.57;4.30;;;24.10;68.30;;;26.81;50.24;101542.84;5093296;28;20655;-59
2022/07/21 03:51:26;;;;;;;5.47;4.23;;;24.10;68.70;;;26.85;51.03;101543.94;5092539;28;20299;-56
2022/07/21 03:53:55;;;;;;;8.60;4.87;;;24.10;68.80;;;26.94;50.35;101525.31;5093017;28;20177;-56
2022/07/21 03:56:23;;;;;;;8.03;4.67;;;24.20;68.80;;;27.00;50.12;101521.56;5094245;28;20185;-57
2022/07/21 03:58:50;;;;;;;7.57;4.60;;;24.20;68.50;;;27.03;49.95;101519.13;5093150;28;20188;-58
2022/07/21 04:01:18;;;;;;;6.10;5.00;;;24.20;68.40;;;27.02;49.90;101503.19;5092388;28;20633;-59
2022/07/21 04:03:46;;;;;;;8.17;4.80;;;24.30;68.00;;;26.99;49.71;101491.03;5091613;28;20235;-56
2022/07/21 04:06:13;;;;;;;7.07;5.17;;;24.30;68.20;;;26.96;49.91;101490.75;5092935;28;20210;-58
2022/07/21 04:08:41;;;;;;;8.33;5.30;;;24.20;68.30;;;26.93;50.01;101485.88;5092928;28;20203;-59
2022/07/21 04:11:10;;;;;;;9.13;5.00;;;24.20;68.40;;;26.86;50.23;101495.00;5092634;28;20214;-58
2022/07/21 04:13:37;;;;;;;5.90;4.43;;;24.20;68.70;;;26.84;50.67;101507.16;5072748;28;20185;-56
2022/07/21 04:16:06;;;;;;;6.60;5.03;;;24.10;68.70;;;26.82;50.75;101496.63;5072912;28;20199;-57
2022/07/21 04:18:34;;;;;;;6.90;4.93;;;24.10;68.70;;;26.79;50.57;101486.34;5072399;28;20213;-56
2022/07/21 04:21:01;;;;;;;6.93;5.17;;;24.10;69.00;;;26.78;50.54;101489.31;5072450;28;20192;-55
2022/07/21 04:23:29;;;;;;;7.13;5.63;;;24.10;69.40;;;26.76;51.33;101486.06;5072316;28;20213;-57
2022/07/21 04:25:56;;;;;;;6.03;4.80;;;24.00;70.20;;;26.75;51.31;101485.25;5086247;28;20196;-55
2022/07/21 04:28:25;;;;;;;10.33;5.30;;;24.00;70.40;;;26.78;51.73;101483.91;5112722;28;20196;-58
2022/07/21 04:30:53;;;;;;;6.87;5.30;;;24.00;70.40;;;26.76;51.39;101481.47;5113481;28;20192;-60
2022/07/21 04:33:20;;;;;;;5.57;5.03;;;24.00;70.10;;;26.74;51.07;101466.56;5115571;28;20223;-57
2022/07/21 04:35:48;;;;;;;5.70;5.10;;;24.00;70.40;;;26.70;51.32;101465.44;5116590;28;20195;-58
2022/07/21 04:38:16;;;;;;;7.47;5.43;;;24.00;70.30;;;26.65;51.34;101463.53;5116882;28;20192;-60
2022/07/21 04:40:43;;;;;;;7.93;5.90;;;23.90;70.70;;;26.62;51.96;101445.19;5116231;28;20267;-57
2022/07/21 04:43:11;;;;;;;5.83;5.23;;;23.90;70.80;;;26.58;52.52;101438.66;5100467;28;20578;-58
2022/07/21 04:45:40;;;;;;;6.03;5.30;;;23.90;71.40;;;26.55;51.93;101436.50;5096412;28;20267;-57
2022/07/21 04:48:08;;;;;;;5.87;5.03;;;23.90;71.60;;;26.55;52.85;101439.22;5095911;28;20185;-58
2022/07/21 04:50:36;;;;;;;5.97;5.33;;;23.80;71.80;;;26.57;52.57;101438.94;5095876;28;20185;-57
2022/07/21 04:53:04;;;;;;;7.20;5.73;;;23.80;72.00;;;26.55;52.31;101431.09;5094030;28;20228;-57
2022/07/21 04:55:31;;;;;;;8.30;6.37;;;23.80;71.30;;;26.52;52.19;101437.03;5096161;28;20187;-60
2022/07/21 04:57:58;;;;;;;6.27;5.67;;;23.80;71.40;;;26.49;52.52;101463.72;5095640;28;20199;-60
2022/07/21 05:00:27;;;;;;;5.97;5.30;;;23.80;71.80;;;26.46;52.06;101470.47;5113012;28;20476;-58
2022/07/21 05:02:56;;;;;;;6.67;5.43;;;23.70;71.70;;;26.47;53.11;101466.69;5116289;28;20207;-59
2022/07/21 05:05:24;;;;;;;6.80;6.07;;;23.80;72.20;;;26.49;52.86;101469.94;5116312;28;20543;-59
2022/07/21 05:07:51;;;;;;;6.00;5.40;;;23.70;72.10;;;26.51;52.51;101473.19;5116073;28;20191;-60
2022/07/21 05:10:21;;;;;;;7.03;6.33;;;23.70;72.40;;;26.53;52.95;101484.56;5116240;28;20188;-59
2022/07/21 05:12:48;;;;;;;6.90;5.80;;;23.80;72.40;;;26.56;53.30;101494.84;5115992;28;20212;-59
2022/07/21 05:15:17;;;;;;;6.87;6.10;;;23.80;72.80;;;26.60;53.25;101504.03;5115277;28;20192;-58
2022/07/21 05:17:45;;;;;;;7.33;6.20;;;23.80;72.60;;;26.65;52.72;101512.16;5115632;28;20227;-59
2022/07/21 05:20:14;;;;;;;7.90;6.33;;;23.80;72.50;;;26.65;52.64;101512.16;5115713;28;20184;-59
2022/07/21 05:22:41;;;;;;;7.73;6.50;;;23.80;71.80;;;26.68;52.70;101530.56;5115418;28;20593;-59
2022/07/21 05:25:09;;;;;;;7.27;6.30;;;23.80;72.00;;;26.66;51.97;101535.44;5115809;27;20567;-59
2022/07/21 05:27:37;;;;;;;8.93;6.40;;;23.80;71.90;;;26.63;52.88;101545.94;5115197;28;20579;-60
2022/07/21 05:30:07;;;;;;;6.17;5.20;;;23.90;72.60;;;26.60;52.71;101541.84;5115429;28;20581;-60
2022/07/21 05:32:36;;;;;;;5.27;4.77;;;23.90;72.10;;;26.54;52.63;101532.09;5097078;28;20217;-58
2022/07/21 05:35:10;;;;;;;6.63;5.83;;;23.80;71.90;;;26.48;52.17;101522.31;5094587;28;20188;-59
2022/07/21 05:37:41;;;;;;;7.17;6.37;;;23.80;71.80;;;26.44;52.72;101528.50;5095045;28;20189;-58
2022/07/21 05:40:10;;;;;;;7.00;5.47;;;23.70;72.20;;;26.43;53.65;101537.72;5094859;28;20635;-60
2022/07/21 05:42:39;;;;;;;6.50;5.83;;;23.70;73.20;;;26.45;53.07;101544.47;5092332;28;20232;-58
2022/07/21 05:45:09;;;;;;;6.60;6.00;;;23.70;73.10;;;26.50;53.67;101549.91;5094559;28;20224;-59
2022/07/21 05:47:36;;;;;;;9.33;5.97;;;23.70;73.20;;;26.53;53.39;101564.78;5095907;28;20192;-58
2022/07/21 05:50:05;;;;;;;6.43;5.53;;;23.80;73.30;;;26.50;53.03;101560.72;5094337;27;20184;-55
2022/07/21 05:52:32;;;;;;;6.53;5.67;;;23.80;73.10;;;26.51;54.01;101559.63;5094017;28;20291;-59
2022/07/21 05:55:01;;;;;;;6.30;5.10;;;23.80;73.70;;;26.52;53.74;101560.44;5094923;28;20211;-60
2022/07/21 05:57:29;;;;;;;7.33;5.40;;;23.80;73.30;;;26.48;53.70;101565.53;5094647;28;20544;-60
2022/07/21 05:59:57;;;;;;;8.43;6.10;;;23.80;73.00;;;26.44;53.19;101556.34;5094680;28;20215;-59
2022/07/21 06:02:25;;;;;;;6.43;5.40;;;23.80;73.10;;;26.40;53.30;101560.66;5093870;28;20213;-59
2022/07/21 06:04:53;;;;;;;8.47;6.20;;;23.80;73.00;;;26.34;54.16;101558.97;5095456;28;20209;-60
2022/07/21 06:07:20;;;;;;;8.13;5.67;;;23.70;73.30;;;26.22;54.90;101561.03;5093854;28;20200;-59
2022/07/21 06:09:48;;;;;;;6.07;5.30;;;23.70;74.00;;;26.08;54.70;101570.59;5094042;28;20199;-58
2022/07/21 06:12:17;;;;;;;7.40;6.13;;;23.60;75.10;;;25.94;55.09;101569.38;5093804;28;20230;-58
2022/07/21 06:14:44;;;;;;;5.70;5.10;;;23.50;74.80;;;25.83;55.84;101586.56;5094084;28;20183;-58
2022/07/21 06:17:12;;;;;;;8.33;5.87;;;23.40;74.60;;;25.77;56.17;101582.19;5093958;28;20215;-57
2022/07/21 06:19:39;;;;;;;8.43;5.47;;;23.30;75.20;;;25.76;55.91;101577.84;5094926;28;20579;-58
2022/07/21 06:22:07;;;;;;;6.03;4.90;;;23.30;75.10;;;25.77;55.14;101577.59;5093827;28;20216;-60
2022/07/21 06:24:34;;;;;;;7.17;6.07;;;23.20;75.10;;;25.75;55.86;101581.59;5094269;28;20649;-60
2022/07/21 06:27:02;;;;;;;7.17;5.40;;;23.20;75.50;;;25.77;55.90;101598.38;5094988;28;20214;-59
2022/07/21 06:29:34;;;;;;;7.20;5.87;;;23.10;75.90;;;25.74;55.29;101591.59;5094068;28;20199;-59
2022/07/21 06:32:02;;;;;;;5.97;5.37;;;23.10;75.90;;;25.75;55.96;101595.09;5093535;28;20211;-59
2022/07/21 06:34:29;;;;;;;6.40;4.90;;;23.10;76.10;;;25.82;55.76;101593.00;5094178;28;20192;-59
2022/07/21 06:36:56;;;;;;;8.47;5.30;;;23.10;76.50;;;25.87;55.75;101601.97;5094618;28;20285;-60
2022/07/21 06:39:24;;;;;;;8.90;6.77;;;23.10;76.20;;;25.89;55.90;101594.44;5093043;28;20207;-60
2022/07/21 06:41:51;;;;;;;10.77;6.23;;;23.10;76.40;;;25.96;56.01;101599.66;5092996;28;20231;-58
2022/07/21 06:44:19;;;;;;;7.00;6.23;;;23.20;76.70;;;26.03;54.91;101601.06;5093410;28;20204;-58
2022/07/21 06:46:47;;;;;;;7.37;6.43;;;23.20;76.30;;;26.05;54.95;101608.91;5093386;28;20196;-58
2022/07/21 06:49:15;;;;;;;10.97;6.30;;;23.20;76.00;;;26.00;54.56;101617.78;5093486;28;20188;-56
2022/07/21 06:51:42;;;;;;;7.80;6.07;;;23.20;75.90;;;25.98;55.54;101619.91;5092697;28;20215;-58
2022/07/21 06:54:10;;;;;;;8.17;6.53;;;23.20;76.10;;;25.97;56.02;101630.94;5110064;28;20183;-59
2022/07/21 06:56:37;;;;;;;9.03;6.70;;;23.20;76.80;;;25.82;56.54;101628.09;5113346;28;20253;-58
2022/07/21 06:59:05;;;;;;;9.17;7.23;;;23.20;76.80;;;25.70;56.24;101627.44;5113721;28;20612;-59
2022/07/21 07:01:33;;;;;;;11.00;7.90;;;23.20;77.20;;;25.65;56.89;101638.16;5113127;28;20208;-58
2022/07/21 07:04:03;;;;;;;9.10;7.97;;;23.10;76.80;;;25.62;57.03;101622.47;5113585;28;20600;-59
2022/07/21 07:06:32;;;;;;;8.07;7.37;;;23.10;77.30;;;25.61;56.99;101615.44;5113573;28;20195;-59
2022/07/21 07:09:00;;;;;;;8.43;7.20;;;23.10;77.50;;;25.60;56.95;101619.22;5111831;28;20532;-58
2022/07/21 07:11:28;;;;;;;7.63;6.93;;;23.00;78.50;;;25.58;56.38;101614.06;5112695;28;20291;-58
2022/07/21 07:13:55;;;;;;;9.00;7.60;;;23.00;78.00;;;25.55;56.99;101626.16;5113652;28;20203;-59
2022/07/21 07:16:35;;;;;;;11.63;9.70;;;22.90;78.20;;;25.53;56.87;101622.13;5113491;27;20192;-60
2022/07/21 07:19:04;;;;;;;9.70;6.53;;;22.90;78.40;;;25.52;57.63;101631.25;5113474;28;20184;-60
2022/07/21 07:21:31;;;;;;;6.93;6.23;;;22.90;78.60;;;25.45;58.34;101619.84;5113075;28;20223;-58
2022/07/21 07:23:59;;;;;;;4.97;4.30;;;22.90;79.80;;;25.25;58.51;101609.59;5113404;28;20187;-58
2022/07/21 07:26:26;;;;;;;4.50;4.20;;;22.80;80.00;;;25.15;59.35;101609.44;5111840;28;20648;-60
2022/07/21 07:28:53;;;;;;;5.30;4.87;;;22.80;80.10;;;25.12;59.25;101609.97;5113306;27;20640;-60
2022/07/21 07:31:22;;;;;;;4.10;3.80;;;22.70;80.20;;;25.18;58.89;101619.75;5111778;28;20207;-59
2022/07/21 07:33:49;;;;;;;4.60;4.30;;;22.70;80.40;;;25.17;59.46;101638.88;5113263;28;20191;-59
2022/07/21 07:36:19;;;;;;;5.83;5.33;;;22.70;81.30;;;25.05;60.20;101641.66;5113184;28;20184;-58
2022/07/21 07:38:48;;;;;;;6.73;6.13;;;22.70;81.80;;;24.94;61.14;101636.38;5113132;28;20282;-59
2022/07/21 07:41:15;;;;;;;11.70;10.57;;;22.60;82.10;;;24.90;61.25;101633.34;5112082;28;20285;-59
2022/07/21 07:43:43;;;;;;;7.40;5.00;;;22.60;82.20;;;24.91;60.94;101629.63;5091721;27;20212;-60
2022/07/21 07:46:12;;;;;;;5.70;5.20;;;22.50;82.60;;;24.94;61.16;101629.09;5092138;28;20208;-57
2022/07/21 07:48:41;;;;;;;6.17;5.57;;;22.50;82.70;;;25.01;60.79;101632.44;5092548;28;20218;-59
2022/07/21 07:51:10;;;;;;;5.50;4.67;;;22.50;82.90;;;25.09;60.47;101632.03;5092403;28;20216;-58
2022/07/21 07:53:40;;;;;;;5.33;4.83;;;22.60;83.20;;;25.18;60.41;101630.53;5092437;28;20212;-58
2022/07/21 07:56:08;;;;;;;5.90;5.03;;;22.60;83.10;;;25.24;60.25;101631.41;5093113;28;20621;-60
2022/07/21 07:58:36;;;;;;;5.30;4.80;;;22.60;82.90;;;25.25;60.58;101631.16;5099290;28;20184;-59
2022/07/21 08:01:05;;;;;;;5.70;5.20;;;22.60;82.90;;;25.29;60.18;101634.19;5112348;28;20559;-59
2022/07/21 08:03:36;;;;;;;5.10;4.70;;;22.70;83.20;;;25.33;60.35;101644.22;5111790;28;20275;-58
2022/07/21 08:06:06;;;;;;;6.13;5.53;;;22.70;83.10;;;25.20;60.33;101643.78;5115807;28;20218;-59
2022/07/21 08:08:33;;;;;;;5.67;5.17;;;22.70;83.10;;;25.16;60.35;101643.44;5116931;28;20270;-58
2022/07/21 08:11:02;;;;;;;6.67;6.03;;;22.70;84.00;;;25.14;60.75;101640.19;5116303;28;20184;-58
2022/07/21 08:13:30;;;;;;;7.03;5.77;;;22.70;83.10;;;25.18;60.43;101643.19;5116762;28;20572;-60
2022/07/21 08:15:58;;;;;;;5.73;5.23;;;22.70;83.30;;;25.23;60.14;101649.47;5114701;28;20694;-57
2022/07/21 08:18:26;;;;;;;5.07;4.50;;;22.70;83.20;;;25.21;59.94;101648.91;5059595;28;20346;-59
2022/07/21 08:20:53;;;;;;;5.63;5.13;;;22.70;82.70;;;25.19;59.97;101647.50;5089845;28;20208;-59
2022/07/21 08:23:21;;;;;;;5.83;5.30;;;22.70;82.60;;;25.24;60.14;101651.09;5074296;28;20189;-57
2022/07/21 08:25:48;;;;;;;5.90;5.30;;;22.70;82.80;;;25.30;60.25;101644.72;5075573;28;20292;-59
2022/07/21 08:28:17;;;;;;;5.23;4.80;;;22.70;83.20;;;25.39;60.03;101648.59;5075551;28;20232;-59
2022/07/21 08:30:44;;;;;;;5.70;5.20;;;22.70;82.90;;;25.46;59.90;101648.44;5079987;28;20280;-60
2022/07/21 08:33:12;;;;;;;5.00;4.50;;;22.80;83.20;;;25.49;59.77;101653.34;5115478;28;20728;-58
2022/07/21 08:35:39;;;;;;;5.10;4.80;;;22.80;83.40;;;25.51;59.77;101652.03;5116206;28;20211;-59
2022/07/21 08:38:09;;;;;;;4.93;4.43;;;22.80;83.00;;;25.49;59.80;101654.16;5116250;28;20194;-59
2022/07/21 08:40:41;;;;;;;4.30;3.93;;;22.80;82.80;;;25.40;59.70;101650.25;5115828;28;20195;-59
2022/07/21 08:43:10;;;;;;;4.73;4.33;;;22.80;83.00;;;25.34;60.42;101651.22;5114734;28;20212;-59
2022/07/21 08:45:41;;;;;;;4.20;3.80;;;22.80;82.90;;;25.36;60.13;101642.91;5116173;28;20219;-59
2022/07/21 08:48:09;;;;;;;4.10;3.80;;;22.90;82.90;;;25.38;60.13;101641.59;5106805;28;20657;-59
2022/07/21 08:50:39;;;;;;;4.93;4.53;;;22.90;83.10;;;25.47;60.04;101642.81;5095355;28;20203;-60
2022/07/21 08:53:07;;;;;;;4.13;3.83;;;22.90;83.20;;;25.59;59.62;101642.69;5095354;28;20219;-60
2022/07/21 08:55:39;;;;;;;3.93;3.63;;;22.90;83.10;;;25.73;60.02;101643.09;5095977;28;20610;-58
2022/07/21 08:58:10;;;;;;;3.87;3.67;;;23.00;83.20;;;25.97;59.43;101644.44;5094037;28;20212;-58
2022/07/21 09:00:41;;;;;;;4.33;3.93;;;23.10;83.20;;;26.16;59.16;101648.44;5094938;28;20632;-58
2022/07/21 09:03:12;;;;;;;4.30;4.00;;;23.20;83.10;;;26.23;58.22;101653.63;5095763;28;20695;-60
2022/07/21 09:05:40;;;;;;;4.97;4.57;;;23.30;82.10;;;26.80;56.84;101650.13;5114347;28;20219;-56
2022/07/21 09:08:08;;;;;;;5.13;4.73;;;23.50;81.20;;;27.39;55.82;101648.06;5115686;28;20560;-57
2022/07/21 09:10:36;;;;;;;5.03;4.63;;;23.80;81.30;;;28.03;53.70;101648.56;5115370;28;20510;-57
2022/07/21 09:13:06;;;;;;;4.50;4.20;;;24.20;79.90;;;28.28;52.94;101647.78;5100215;27;20229;-58
2022/07/21 09:15:36;;;;;;;3.50;3.30;;;24.60;78.50;;;28.34;52.88;101651.28;5094159;28;20201;-59
2022/07/21 09:18:09;;;;;;;4.87;4.47;;;24.90;77.70;;;28.30;52.49;101650.22;5090060;28;20192;-59
2022/07/21 09:20:47;;;;;;;4.00;3.70;;;25.00;76.10;;;28.49;51.50;101651.31;5095488;28;20203;-60
2022/07/21 09:23:17;;;;;;;3.60;3.40;;;25.10;74.70;;;29.93;48.73;101656.66;5078553;28;20197;-59
2022/07/21 09:25:48;;;;;;;3.63;3.43;;;25.40;74.90;;;31.08;45.58;101645.13;5084827;28;20647;-59
2022/07/21 09:28:18;;;;;;;3.60;3.40;;;26.00;72.20;;;31.55;44.32;101649.75;5074023;28;20193;-59
2022/07/21 09:30:58;;;;;;;4.20;3.90;;;26.60;69.80;;;31.36;43.77;101652.44;5091499;28;20204;-60
2022/07/21 09:33:31;;;;;;;4.40;4.00;;;27.00;67.00;;;30.72;44.32;101653.63;5076912;27;20227;-59
2022/07/21 09:36:04;;;;;;;3.57;3.27;;;27.10;66.00;;;30.16;45.31;101649.72;5072740;28;20604;-58
2022/07/21 09:38:36;;;;;;;3.10;2.90;;;27.00;65.40;;;29.78;46.38;101647.81;5089843;28;20280;-61
2022/07/21 09:41:13;;;;;;;3.33;3.13;;;26.80;65.60;;;29.50;46.76;101658.19;5094142;28;20202;-60
2022/07/21 09:43:44;;;;;;;3.20;3.00;;;26.70;66.90;;;30.59;46.43;101658.94;5093296;28;20192;-60
2022/07/21 09:46:15;;;;;;;4.20;3.80;;;26.70;68.00;;;32.60;42.73;101655.59;5080000;28;20217;-60
2022/07/21 09:48:47;;;;;;;3.80;3.53;;;27.10;68.40;;;33.66;39.80;101650.84;5073919;28;20189;-59
2022/07/21 09:51:37;;;;;;;3.90;3.60;;;27.70;65.00;;;33.39;38.80;101657.13;5074166;28;20213;-59
2022/07/21 09:54:07;;;;;;;5.17;4.67;;;28.30;60.90;;;32.75;38.53;101658.06;5088343;28;20196;-59
2022/07/21 09:56:37;;;;;;;4.03;3.73;;;28.50;58.90;;;32.27;40.63;101653.94;5094039;28;20199;-59
2022/07/21 09:59:07;;;;;;;3.97;3.67;;;28.50;58.90;;;31.77;40.20;101653.56;5091294;28;20207;-60
2022/07/21 10:01:36;;;;;;;4.23;3.80;;;28.30;58.50;;;31.08;40.84;101664.19;5091289;28;20219;-59
2022/07/21 10:04:05;;;;;;;4.30;4.00;;;28.00;57.90;;;30.39;41.87;101659.91;5089998;27;20209;-59
2022/07/21 10:06:36;;;;;;;4.13;3.83;;;27.70;58.20;;;29.98;42.77;101658.53;5091903;28;20218;-60
2022/07/21 10:09:06;;;;;;;4.20;3.90;;;27.40;58.60;;;30.15;42.86;101656.25;5081173;28;20194;-57
2022/07/21 10:11:39;;;;;;;4.73;4.43;;;27.20;59.80;;;30.40;42.27;101658.81;5092650;28;20221;-59
2022/07/21 10:14:10;;;;;;;4.97;4.50;;;27.10;59.50;;;30.45;42.25;101656.03;5093070;28;20193;-59
2022/07/21 10:16:40;;;;;;;4.60;4.20;;;27.10;60.40;;;30.23;41.81;101644.78;5088887;28;20201;-57
2022/07/21 10:19:23;;;;;;;4.10;3.70;;;27.10;59.20;;;29.88;42.41;101659.41;5078422;28;20701;-59
2022/07/21 10:22:01;;;;;;;3.67;3.47;;;27.00;59.30;;;29.59;43.35;101652.22;5101479;27;20628;-57